This is the latest recevied weather packets stored in our database for station/object W1REE. If no packets are shown the sender has not sent any weather packets the latest 10 day(s).
| Time | Temp. | Humidity | Pressure | Rain* | Wind** | Luminosity | Snow |
|---|---|---|---|---|---|---|---|
| 1777242547 | 18.89° C | 30% | 1002.5 hPa | 0 mm | - | 410 W/m² | - |
| 1777242243 | 19.44° C | 18% | 1002.7 hPa | 0 mm | - | 567 W/m² | - |
| 1777241941 | 18.33° C | 26% | 1002.7 hPa | 0 mm | - | 573 W/m² | - |
| 1777241637 | 19.44° C | 27% | 1003.4 hPa | 0 mm | - | 598 W/m² | - |
| 1777241335 | 20.56° C | 24% | 1002.6 hPa | 0 mm | - | 689 W/m² | - |
| 1777241032 | 20.56° C | 20% | 1002.7 hPa | 0 mm | - | 757 W/m² | - |
| 1777240730 | 20° C | 19% | 1002.8 hPa | 0 mm | - | 777 W/m² | - |
| 1777240427 | 20.56° C | 19% | 1002.9 hPa | 0 mm | - | 779 W/m² | - |
| 1777240124 | 20° C | 20% | 1003.2 hPa | 0 mm | - | 731 W/m² | - |
| 1777239823 | 20° C | 21% | 1003.1 hPa | 0 mm | - | 343 W/m² | - |
| 1777239518 | 18.89° C | 24% | 1002.8 hPa | 0 mm | - | 783 W/m² | - |
| 1777239216 | 18.89° C | 24% | 1003.2 hPa | 0 mm | - | 523 W/m² | - |
| 1777238913 | 18.33° C | 26% | 1002.9 hPa | 0 mm | - | 622 W/m² | - |
| 1777238610 | 18.33° C | 25% | 1003.1 hPa | 0 mm | - | 326 W/m² | - |
| 1777238307 | 18.33° C | 28% | 1003.1 hPa | 0 mm | - | 690 W/m² | - |
| 1777238004 | 19.44° C | 25% | 1002.8 hPa | 0 mm | - | 254 W/m² | - |
| 1777237700 | 20° C | 24% | 1002.8 hPa | 0 mm | - | 572 W/m² | - |
| 1777237397 | 20° C | 25% | 1002.9 hPa | 0 mm | - | 708 W/m² | - |
| 1777237095 | 20° C | 24% | 1002.8 hPa | 0 mm | - | 901 W/m² | - |
| 1777236792 | 20.56° C | 24% | 1002.8 hPa | 0 mm | - | 928 W/m² | - |
| 1777236491 | 20° C | 28% | 1002.9 hPa | 0 mm | - | 955 W/m² | - |
| 1777236188 | 19.44° C | 29% | 1003.2 hPa | 0 mm | - | 945 W/m² | - |
| 1777235883 | 19.44° C | 31% | 1003.4 hPa | 0 mm | - | 843 W/m² | - |
| 1777235581 | 18.89° C | 29% | 1003.4 hPa | 0 mm | - | 916 W/m² | - |
| 1777235276 | 19.44° C | 28% | 1003.2 hPa | 0 mm | - | 943 W/m² | - |
* Rain latest hour (hover to see other rain measurements)
** Current wind speed in m/s (hover to see current wind gust speed)